Time;durP1;ratioP1;P1;durP2;ratioP2;P2;SDS_P1;SDS_P2;PMS_P1;PMS_P2;Temp;Humidity;BMP_temperature;BMP_pressure;BME280_temperature;BME280_humidity;BME280_pressure;Samples;Min_cycle;Max_cycle;Signal;HPM_P1;HPM_P2
2023/07/24 00:00:08;;;;;;;8.50;5.93;;;;;;;19.31;100.00;98011.63;5074379;28;20513;-78
2023/07/24 00:02:53;;;;;;;12.55;6.57;;;;;;;20.12;100.00;98017.34;5079659;28;20043;-77
2023/07/24 00:05:37;;;;;;;10.43;6.13;;;;;;;20.29;100.00;98013.44;5076746;28;20448;-78
2023/07/24 00:08:21;;;;;;;11.00;7.18;;;;;;;19.18;100.00;98010.41;5077660;28;20086;-80
2023/07/24 00:11:09;;;;;;;10.65;6.55;;;;;;;19.58;100.00;98019.16;5075966;28;20043;-79
2023/07/24 00:13:53;;;;;;;12.18;7.15;;;;;;;19.31;100.00;98016.97;5078510;28;20046;-79
2023/07/24 00:16:37;;;;;;;12.25;7.20;;;;;;;19.43;100.00;98027.25;5070200;28;20165;-79
2023/07/24 00:19:21;;;;;;;12.85;6.88;;;;;;;19.59;100.00;98030.56;5073328;28;20523;-79
2023/07/24 00:22:05;;;;;;;14.73;7.75;;;;;;;20.08;100.00;98020.84;5074525;28;20413;-78
2023/07/24 00:24:49;;;;;;;13.77;7.50;;;;;;;20.03;100.00;98024.34;5081187;28;20101;-81
2023/07/24 00:27:33;;;;;;;13.10;7.80;;;;;;;19.57;100.00;98027.41;5080593;28;20043;-80
2023/07/24 00:30:17;;;;;;;14.63;7.95;;;;;;;19.41;100.00;98016.88;5082993;28;20089;-80
2023/07/24 00:33:02;;;;;;;14.95;8.32;;;;;;;19.55;100.00;98033.81;5080683;28;20455;-79
2023/07/24 00:35:49;;;;;;;14.15;8.38;;;;;;;19.78;100.00;98033.38;5082105;28;20042;-79
2023/07/24 00:38:33;;;;;;;15.48;8.40;;;;;;;19.19;100.00;98023.41;5082912;28;20043;-80
2023/07/24 00:41:17;;;;;;;15.50;8.35;;;;;;;19.43;100.00;98020.03;5082081;28;20543;-79
2023/07/24 00:44:01;;;;;;;16.60;9.25;;;;;;;19.94;100.00;98026.06;5082620;28;20066;-80
2023/07/24 00:46:45;;;;;;;16.77;9.38;;;;;;;19.99;100.00;98023.31;5078727;28;20105;-80
2023/07/24 00:49:30;;;;;;;16.40;9.82;;;;;;;20.41;100.00;98021.81;5083117;28;20042;-79
2023/07/24 00:52:15;;;;;;;20.23;9.43;;;;;;;19.70;100.00;98018.78;5082381;28;20035;-79
2023/07/24 00:55:00;;;;;;;16.13;8.15;;;;;;;20.28;100.00;98019.84;5078612;28;20036;-79
2023/07/24 00:57:44;;;;;;;19.13;9.13;;;;;;;19.71;100.00;98033.69;5082915;28;20101;-79
2023/07/24 01:00:29;;;;;;;14.93;8.73;;;;;;;19.92;100.00;98015.66;5077731;28;20035;-81
2023/07/24 01:03:14;;;;;;;17.77;8.73;;;;;;;19.83;100.00;98015.44;5081255;28;20046;-83
2023/07/24 01:05:57;;;;;;;17.77;9.40;;;;;;;20.75;100.00;98022.75;5080715;28;20089;-83
2023/07/24 01:08:41;;;;;;;13.85;8.38;;;;;;;19.47;100.00;98029.09;5077765;28;20131;-79
2023/07/24 01:11:42;;;;;;;14.27;8.45;;;;;;;20.16;100.00;98032.75;5072181;28;20035;-79
2023/07/24 01:14:40;;;;;;;14.48;7.63;;;;;;;20.39;100.00;98023.19;5075503;28;20059;-79
2023/07/24 01:17:27;;;;;;;16.83;9.45;;;;;;;20.26;100.00;98038.00;5078893;28;20091;-83
2023/07/24 01:20:14;;;;;;;14.52;9.05;;;;;;;20.68;100.00;98022.28;5080383;28;20094;-83
2023/07/24 01:23:31;;;;;;;21.38;9.38;;;;;;;20.37;100.00;98025.34;5076817;28;20063;-84
2023/07/24 01:26:16;;;;;;;15.23;8.45;;;;;;;19.87;100.00;98026.34;5076065;28;20047;-84
2023/07/24 01:29:00;;;;;;;17.00;8.45;;;;;;;20.75;100.00;98033.44;5081609;28;20059;-84
2023/07/24 01:31:44;;;;;;;12.93;9.05;;;;;;;20.54;100.00;98027.53;5082027;28;20070;-85
2023/07/24 01:34:28;;;;;;;14.57;8.98;;;;;;;19.96;100.00;98031.88;5078799;28;20043;-84
2023/07/24 01:37:13;;;;;;;13.98;9.27;;;;;;;20.14;100.00;98029.59;5075982;28;20544;-85
2023/07/24 01:39:57;;;;;;;17.15;10.10;;;;;;;20.51;100.00;98028.13;5076087;28;20048;-86
2023/07/24 01:42:42;;;;;;;17.92;9.95;;;;;;;21.15;99.55;98027.84;5080429;28;20094;-83
2023/07/24 01:45:26;;;;;;;13.98;8.65;;;;;;;21.24;98.94;98027.97;5084607;28;20046;-84
2023/07/24 01:48:10;;;;;;;13.27;9.70;;;;;;;20.87;98.79;98025.03;5084771;28;20398;-80
2023/07/24 01:50:54;;;;;;;21.35;9.98;;;;;;;21.27;99.12;98032.72;5084247;28;20039;-82
2023/07/24 01:53:38;;;;;;;13.15;9.15;;;;;;;20.05;100.00;98022.22;5081687;28;20039;-80
2023/07/24 01:56:22;;;;;;;18.40;9.55;;;;;;;19.86;100.00;98031.97;5081842;28;20065;-81
2023/07/24 01:59:06;;;;;;;18.25;9.85;;;;;;;20.29;100.00;98026.75;5077436;28;20082;-82
2023/07/24 02:01:50;;;;;;;15.48;9.88;;;;;;;20.59;100.00;98030.13;5082082;28;20038;-79
2023/07/24 02:04:33;;;;;;;;;;;;;;;21.06;99.19;98032.25;5077576;28;20101;-79
2023/07/24 02:07:18;;;;;;;18.85;9.23;;;;;;;20.50;99.67;98023.88;5079482;28;19923;-81
2023/07/24 02:10:01;;;;;;;14.98;9.57;;;;;;;20.02;99.69;98021.97;5084047;28;20042;-78
2023/07/24 02:12:45;;;;;;;14.93;9.68;;;;;;;19.68;100.00;98029.69;5077566;28;20124;-79
2023/07/24 02:15:29;;;;;;;18.25;9.07;;;;;;;19.32;100.00;98029.19;5085649;28;20069;-81
2023/07/24 02:18:13;;;;;;;15.40;8.95;;;;;;;20.21;100.00;98030.03;5080238;28;20404;-81
2023/07/24 02:20:57;;;;;;;21.92;9.48;;;;;;;19.43;100.00;98028.03;5090451;28;20038;-79
2023/07/24 02:23:41;;;;;;;13.02;8.90;;;;;;;19.49;100.00;98020.81;5085860;28;20529;-82
2023/07/24 02:26:25;;;;;;;15.60;9.07;;;;;;;19.66;100.00;98020.41;5083276;28;20039;-81
2023/07/24 02:29:09;;;;;;;15.50;9.90;;;;;;;19.59;100.00;98019.94;5077439;28;20035;-81
2023/07/24 02:31:57;;;;;;;15.10;9.10;;;;;;;19.48;100.00;98017.38;5081000;28;20059;-80
2023/07/24 02:34:41;;;;;;;16.25;10.00;;;;;;;19.89;100.00;98013.53;5076601;28;20566;-80
2023/07/24 02:37:24;;;;;;;13.60;9.32;;;;;;;19.44;100.00;98008.31;5078591;28;20563;-80
2023/07/24 02:40:09;;;;;;;16.45;10.05;;;;;;;20.00;100.00;98016.94;5083929;28;20065;-80
2023/07/24 02:42:53;;;;;;;16.92;10.05;;;;;;;20.57;100.00;98016.31;5084070;28;20048;-80
2023/07/24 02:45:37;;;;;;;25.88;9.60;;;;;;;20.17;100.00;98021.84;5077452;28;20090;-81
2023/07/24 02:48:22;;;;;;;18.50;9.45;;;;;;;20.31;100.00;98019.28;5081151;28;20098;-80
2023/07/24 02:51:06;;;;;;;17.83;10.18;;;;;;;20.56;100.00;98025.38;5077258;28;20090;-84
2023/07/24 02:53:50;;;;;;;20.25;10.45;;;;;;;20.46;100.00;98017.53;5079069;28;20101;-83
2023/07/24 02:56:34;;;;;;;15.15;10.00;;;;;;;20.83;100.00;98018.66;5078301;28;20096;-83
2023/07/24 02:59:17;;;;;;;17.73;10.20;;;;;;;20.47;100.00;98019.09;5074544;28;20044;-84
2023/07/24 03:02:02;;;;;;;16.08;9.65;;;;;;;20.70;100.00;98022.81;5073323;28;20154;-84
2023/07/24 03:04:46;;;;;;;14.38;9.65;;;;;;;19.77;100.00;98019.25;5078143;28;20420;-83
2023/07/24 03:07:30;;;;;;;13.93;9.27;;;;;;;20.97;100.00;98019.53;5077737;28;20051;-84
2023/07/24 03:10:14;;;;;;;20.25;9.43;;;;;;;19.87;100.00;98020.25;5076734;28;20112;-85
2023/07/24 03:12:58;;;;;;;15.15;9.63;;;;;;;20.36;100.00;98010.44;5075243;28;20043;-83
2023/07/24 03:15:42;;;;;;;13.00;8.55;;;;;;;20.05;100.00;98016.09;5075407;28;20039;-82
2023/07/24 03:18:26;;;;;;;14.63;8.40;;;;;;;20.34;100.00;98013.38;5078493;28;20043;-83
2023/07/24 03:21:10;;;;;;;;;;;;;;;20.57;100.00;98018.97;5077852;28;20039;-82
2023/07/24 03:23:54;;;;;;;18.33;9.52;;;;;;;20.48;100.00;98013.47;5075984;28;19919;-83
2023/07/24 03:26:38;;;;;;;19.45;9.50;;;;;;;19.91;100.00;98015.94;5077599;28;20186;-82
2023/07/24 03:29:22;;;;;;;15.00;9.85;;;;;;;20.68;100.00;98016.97;5071741;28;20443;-84
2023/07/24 03:32:06;;;;;;;17.33;10.02;;;;;;;19.61;100.00;98015.94;5074435;28;20062;-83
2023/07/24 03:34:50;;;;;;;16.75;11.07;;;;;;;20.19;100.00;98019.69;5080471;28;20043;-82
2023/07/24 03:37:35;;;;;;;18.77;10.55;;;;;;;20.37;100.00;98014.69;5076013;28;20513;-84
2023/07/24 03:40:19;;;;;;;16.77;9.32;;;;;;;19.87;100.00;98012.25;5073046;28;20110;-85
2023/07/24 03:43:03;;;;;;;17.38;9.30;;;;;;;20.09;100.00;98011.78;5077411;28;20067;-84
2023/07/24 03:45:48;;;;;;;17.42;9.90;;;;;;;19.97;100.00;98009.50;5080700;28;20039;-84
2023/07/24 03:48:32;;;;;;;14.77;10.48;;;;;;;20.08;100.00;98018.19;5078196;28;20036;-84
2023/07/24 03:51:16;;;;;;;18.02;10.35;;;;;;;21.02;100.00;98025.88;5076446;28;20094;-85
2023/07/24 03:54:00;;;;;;;13.70;9.18;;;;;;;20.35;100.00;98019.50;5080350;28;20078;-84
2023/07/24 03:56:44;;;;;;;14.63;9.57;;;;;;;29.86;69.86;98019.81;5080507;28;20047;-84
2023/07/24 03:59:28;;;;;;;19.90;9.43;;;;;;;29.33;66.17;98019.97;5080498;28;20051;-85
2023/07/24 04:02:15;;;;;;;17.63;9.68;;;;;;;29.06;64.81;98022.31;5082840;28;20078;-86
2023/07/24 04:05:00;;;;;;;14.15;9.10;;;;;;;29.35;64.46;98013.06;5078293;28;20059;-85
2023/07/24 04:07:43;;;;;;;14.95;10.00;;;;;;;28.11;64.96;98015.22;5081285;28;20075;-86
2023/07/24 04:10:30;;;;;;;17.88;9.93;;;;;;;29.00;63.30;98031.81;5070548;28;20048;-85
2023/07/24 04:13:14;;;;;;;16.23;9.38;;;;;;;21.80;82.10;98039.66;5080048;28;20109;-86
2023/07/24 04:15:59;;;;;;;20.40;9.40;;;;;;;19.51;100.00;98037.28;5079941;28;20574;-86
2023/07/24 04:18:43;;;;;;;19.42;10.15;;;;;;;19.49;100.00;98042.91;5080988;28;20086;-86
2023/07/24 04:21:27;;;;;;;20.23;11.07;;;;;;;19.99;100.00;98041.97;5080162;28;20429;-84
2023/07/24 04:24:11;;;;;;;25.80;11.02;;;;;;;19.18;100.00;98045.00;5081764;28;20043;-84
2023/07/24 04:26:55;;;;;;;24.27;11.00;;;;;;;19.30;100.00;98034.00;5078836;28;20445;-85
2023/07/24 04:29:39;;;;;;;25.67;11.43;;;;;;;19.11;100.00;98037.31;5086136;28;20042;-85
2023/07/24 04:32:23;;;;;;;24.33;10.60;;;;;;;19.15;100.00;98048.97;5081631;28;20043;-85
2023/07/24 04:35:07;;;;;;;24.20;10.10;;;;;;;18.83;100.00;98050.16;5089750;28;20043;-85
2023/07/24 04:37:51;;;;;;;26.27;10.80;;;;;;;18.13;100.00;98052.53;5084500;28;20065;-83
2023/07/24 04:40:35;;;;;;;34.55;11.15;;;;;;;18.23;100.00;98057.03;5081284;28;20051;-83
2023/07/24 04:43:19;;;;;;;26.02;11.80;;;;;;;18.16;100.00;98055.72;5081242;28;20102;-83
2023/07/24 04:46:03;;;;;;;28.00;10.82;;;;;;;18.38;100.00;98053.53;5079966;28;20055;-82
2023/07/24 04:48:48;;;;;;;29.95;11.23;;;;;;;19.20;100.00;98056.91;5085978;28;20091;-82
2023/07/24 04:51:32;;;;;;;26.55;11.55;;;;;;;19.25;100.00;98064.09;5086585;28;20382;-81
2023/07/24 04:54:16;;;;;;;26.95;11.40;;;;;;;19.70;100.00;98066.72;5084826;28;20044;-81
2023/07/24 04:57:00;;;;;;;30.48;12.05;;;;;;;19.84;100.00;98058.88;5078920;28;20047;-82
2023/07/24 04:59:44;;;;;;;26.67;11.25;;;;;;;19.39;100.00;98069.56;5080975;28;20097;-82
2023/07/24 05:02:28;;;;;;;30.15;11.82;;;;;;;18.89;100.00;98073.03;5084781;28;20047;-83
2023/07/24 05:05:12;;;;;;;23.23;11.65;;;;;;;19.46;100.00;98077.25;5088456;28;20046;-82
2023/07/24 05:07:56;;;;;;;20.65;9.95;;;;;;;19.15;100.00;98080.91;5087097;28;20051;-82
2023/07/24 05:10:40;;;;;;;24.08;10.48;;;;;;;17.98;100.00;98077.22;5079878;28;20035;-83
2023/07/24 05:13:25;;;;;;;29.35;10.45;;;;;;;18.36;100.00;98081.44;5087168;28;20102;-82
2023/07/24 05:16:09;;;;;;;28.58;10.18;;;;;;;19.01;100.00;98080.72;5058550;28;20411;-83
2023/07/24 05:18:53;;;;;;;22.23;10.27;;;;;;;19.53;100.00;98086.53;5087806;28;20127;-81
2023/07/24 05:21:37;;;;;;;20.92;10.45;;;;;;;19.86;100.00;98088.66;5078979;28;20085;-82
2023/07/24 05:24:21;;;;;;;29.05;9.88;;;;;;;19.67;100.00;98092.00;5079510;28;20510;-81
2023/07/24 05:27:05;;;;;;;22.70;9.55;;;;;;;19.00;100.00;98089.75;5082607;28;20119;-82
2023/07/24 05:29:50;;;;;;;30.00;11.23;;;;;;;18.73;100.00;98084.78;5084023;28;20044;-82
2023/07/24 05:32:34;;;;;;;20.00;9.90;;;;;;;18.37;100.00;98094.44;5081631;28;20043;-82
2023/07/24 05:35:18;;;;;;;23.88;9.32;;;;;;;18.61;100.00;98085.88;5082191;28;20039;-83
2023/07/24 05:38:02;;;;;;;18.52;9.25;;;;;;;19.15;100.00;98096.06;5087105;28;20127;-82
2023/07/24 05:40:46;;;;;;;23.02;9.75;;;;;;;18.39;100.00;98102.94;5088991;28;20173;-83
2023/07/24 05:43:31;;;;;;;33.30;9.98;;;;;;;17.93;100.00;98095.78;5080894;28;20501;-81
2023/07/24 05:46:15;;;;;;;19.52;9.13;;;;;;;18.19;100.00;98103.78;5078209;28;20516;-81
2023/07/24 05:49:00;;;;;;;23.55;8.82;;;;;;;17.64;100.00;98098.16;5092702;28;20071;-83
2023/07/24 05:51:45;;;;;;;25.45;9.90;;;;;;;18.48;100.00;98107.72;5087322;28;20043;-83
2023/07/24 05:54:29;;;;;;;28.83;9.98;;;;;;;17.48;100.00;98119.38;5074555;28;20044;-82
2023/07/24 05:57:13;;;;;;;20.48;8.77;;;;;;;18.22;100.00;98105.09;5085661;28;20086;-81
2023/07/24 05:59:57;;;;;;;19.58;9.30;;;;;;;17.96;100.00;98107.75;5086091;28;20096;-80
2023/07/24 06:02:41;;;;;;;30.33;9.88;;;;;;;17.89;100.00;98120.50;5081149;28;20044;-79
2023/07/24 06:05:24;;;;;;;27.80;9.10;;;;;;;17.06;100.00;98123.78;5076177;28;20512;-81
2023/07/24 06:08:10;;;;;;;26.52;8.50;;;;;;;16.31;100.00;98126.53;5086613;28;20047;-82
2023/07/24 06:10:54;;;;;;;22.15;8.60;;;;;;;17.17;100.00;98116.66;5086103;28;20451;-84
2023/07/24 06:13:38;;;;;;;20.05;8.25;;;;;;;17.15;100.00;98120.63;5087610;28;20451;-83
2023/07/24 06:16:22;;;;;;;22.90;8.55;;;;;;;17.59;100.00;98122.06;5084941;28;20100;-84
2023/07/24 06:19:06;;;;;;;19.05;9.40;;;;;;;17.41;100.00;98127.59;5075230;28;20043;-82
2023/07/24 06:21:50;;;;;;;;;;;;;;;17.79;100.00;98130.03;5089464;28;20093;-81
2023/07/24 06:24:34;;;;;;;19.50;7.63;;;;;;;18.34;100.00;98140.16;5078349;28;19991;-78
2023/07/24 06:27:18;;;;;;;27.25;9.50;;;;;;;17.68;100.00;98133.72;5077610;28;20042;-78
2023/07/24 06:30:02;;;;;;;17.67;8.85;;;;;;;18.23;100.00;98141.22;5073558;28;20071;-77
2023/07/24 06:32:46;;;;;;;23.90;9.63;;;;;;;17.65;100.00;98131.59;5074919;28;20075;-76
2023/07/24 06:35:31;;;;;;;15.95;9.07;;;;;;;18.78;100.00;98136.09;5074347;28;20093;-77
2023/07/24 06:38:18;;;;;;;19.52;9.57;;;;;;;18.67;100.00;98145.13;5071889;28;20165;-77
2023/07/24 06:41:02;;;;;;;26.90;10.23;;;;;;;18.59;100.00;98135.84;5069207;28;20047;-76
2023/07/24 06:43:46;;;;;;;18.02;8.68;;;;;;;19.21;100.00;98143.63;5072194;28;20039;-77
2023/07/24 06:46:30;;;;;;;22.48;8.93;;;;;;;17.84;100.00;98147.84;5076608;28;20086;-77
2023/07/24 06:49:14;;;;;;;15.07;8.80;;;;;;;18.60;100.00;98134.78;5074015;28;20035;-76
2023/07/24 06:51:58;;;;;;;17.55;7.80;;;;;;;19.21;100.00;98148.19;5072583;28;20038;-76
2023/07/24 06:54:42;;;;;;;18.13;8.35;;;;;;;18.64;100.00;98149.13;5075067;28;20094;-78
2023/07/24 06:57:27;;;;;;;16.20;8.20;;;;;;;18.25;100.00;98157.69;5074342;28;20051;-76
2023/07/24 07:00:11;;;;;;;18.75;7.88;;;;;;;18.07;100.00;98149.19;5076911;28;20039;-77
2023/07/24 07:02:56;;;;;;;16.88;7.25;;;;;;;19.02;100.00;98146.13;5068318;28;20113;-78
2023/07/24 07:05:40;;;;;;;21.35;6.93;;;;;;;19.07;100.00;98147.97;5074563;28;20062;-78
2023/07/24 07:08:24;;;;;;;18.98;7.65;;;;;;;18.89;100.00;98146.66;5072050;28;20132;-77
2023/07/24 07:11:08;;;;;;;16.40;6.47;;;;;;;19.48;100.00;98147.78;5075913;28;20056;-77
2023/07/24 07:13:52;;;;;;;16.80;6.40;;;;;;;18.94;100.00;98150.13;5075835;28;20139;-79
2023/07/24 07:16:36;;;;;;;16.02;6.72;;;;;;;19.30;100.00;98156.38;5078502;28;20050;-79
2023/07/24 07:19:20;;;;;;;11.40;5.45;;;;;;;19.53;100.00;98161.03;5077888;28;20035;-80
2023/07/24 07:22:04;;;;;;;13.52;5.72;;;;;;;18.65;100.00;98160.56;5081931;28;20047;-79
2023/07/24 07:24:49;;;;;;;12.98;5.32;;;;;;;19.39;100.00;98165.38;5081344;28;20088;-79
2023/07/24 07:27:33;;;;;;;14.60;6.55;;;;;;;19.30;100.00;98162.47;5082886;28;20055;-78
2023/07/24 07:30:17;;;;;;;20.40;6.35;;;;;;;19.49;100.00;98169.84;5073907;28;20066;-79
2023/07/24 07:33:01;;;;;;;11.02;5.07;;;;;;;19.45;100.00;98174.91;5074705;28;20055;-79
2023/07/24 07:35:45;;;;;;;12.82;5.53;;;;;;;19.39;100.00;98181.34;5074475;28;20110;-80
2023/07/24 07:38:29;;;;;;;17.38;5.95;;;;;;;20.01;100.00;98175.66;5074616;28;20098;-78
2023/07/24 07:41:13;;;;;;;15.57;5.43;;;;;;;19.57;100.00;98173.78;5078684;28;20039;-78
2023/07/24 07:43:57;;;;;;;13.82;5.57;;;;;;;20.47;100.00;98173.69;5073550;28;20456;-78
2023/07/24 07:46:41;;;;;;;11.20;5.07;;;;;;;20.71;100.00;98175.59;5080628;28;20034;-77
2023/07/24 07:49:25;;;;;;;18.23;6.22;;;;;;;20.58;100.00;98180.50;5075052;28;20075;-77
2023/07/24 07:52:09;;;;;;;7.38;4.90;;;;;;;21.21;98.72;98184.13;5077107;28;20071;-78
2023/07/24 07:54:53;;;;;;;17.05;5.15;;;;;;;20.91;99.57;98177.25;5080093;28;20051;-77
2023/07/24 07:57:37;;;;;;;12.02;5.40;;;;;;;21.20;97.08;98182.53;5072936;28;20040;-78
2023/07/24 08:00:22;;;;;;;11.73;5.05;;;;;;;20.67;98.20;98186.03;5076193;28;20096;-77
2023/07/24 08:03:06;;;;;;;12.55;5.10;;;;;;;20.29;97.96;98183.16;5086259;28;20058;-77
2023/07/24 08:05:50;;;;;;;14.13;4.95;;;;;;;20.61;99.52;98193.28;5082970;28;20039;-78
2023/07/24 08:08:34;;;;;;;14.60;5.38;;;;;;;21.47;96.37;98188.34;5082236;28;20055;-78
2023/07/24 08:11:19;;;;;;;11.65;5.07;;;;;;;22.25;90.64;98198.72;5081762;28;20044;-79
2023/07/24 08:14:03;;;;;;;14.00;5.25;;;;;;;21.68;94.60;98204.91;5083789;28;20444;-79
2023/07/24 08:16:51;;;;;;;12.93;5.45;;;;;;;21.54;94.45;98196.81;5078418;28;20085;-77
2023/07/24 08:19:35;;;;;;;13.93;5.18;;;;;;;20.61;94.92;98205.81;5078201;28;20036;-80
2023/07/24 08:22:22;;;;;;;8.05;4.45;;;;;;;20.92;95.19;98203.66;5077834;28;20089;-79
2023/07/24 08:25:07;;;;;;;11.35;4.80;;;;;;;20.38;96.23;98206.28;5079072;28;20046;-82
2023/07/24 08:27:51;;;;;;;8.82;4.93;;;;;;;21.21;94.19;98200.13;5080447;28;20074;-79
2023/07/24 08:30:36;;;;;;;10.68;5.05;;;;;;;21.17;93.48;98204.44;5079017;28;20051;-81
2023/07/24 08:33:20;;;;;;;8.52;5.22;;;;;;;21.05;92.67;98212.84;5082800;28;20114;-83
2023/07/24 08:36:06;;;;;;;6.28;4.28;;;;;;;21.83;90.98;98219.91;5079259;28;20070;-82
2023/07/24 08:38:50;;;;;;;11.05;4.47;;;;;;;21.57;91.71;98222.94;5079894;28;20087;-80
2023/07/24 08:41:35;;;;;;;14.57;4.85;;;;;;;22.25;89.46;98218.22;5079072;28;20115;-84
2023/07/24 08:44:20;;;;;;;14.07;5.25;;;;;;;;;;5078487;28;20043;-85
2023/07/24 08:47:06;;;;;;;10.38;4.90;;;;;;;21.60;92.38;98224.22;5081695;28;20123;-85
2023/07/24 08:49:53;;;;;;;11.90;4.90;;;;;;;21.40;89.29;98234.88;5080625;28;20097;-86
2023/07/24 08:52:39;;;;;;;7.85;5.07;;;;;;;21.82;90.33;98229.03;5081263;28;20048;-80
2023/07/24 08:55:24;;;;;;;9.68;5.00;;;;;;;21.69;88.88;98225.19;5071982;28;20062;-80
2023/07/24 08:58:09;;;;;;;11.25;5.38;;;;;;;21.85;88.38;98227.66;5076866;28;20077;-84
2023/07/24 09:00:53;;;;;;;11.90;5.13;;;;;;;21.82;89.04;98235.19;5073891;28;20190;-79
2023/07/24 09:03:37;;;;;;;9.38;5.25;;;;;;;22.60;88.03;98231.34;5076575;28;20047;-80
2023/07/24 09:06:20;;;;;;;10.77;5.38;;;;;;;22.61;86.30;98232.91;5081370;28;20067;-79
2023/07/24 09:09:15;;;;;;;11.55;5.10;;;;;;;22.74;85.89;98233.22;5074197;28;20563;-80
2023/07/24 09:12:00;;;;;;;14.13;5.03;;;;;;;23.60;86.32;98233.75;5073353;28;20040;-77
2023/07/24 09:14:45;;;;;;;11.65;5.05;;;;;;;22.74;84.74;98225.19;5073246;28;20398;-78
2023/07/24 09:17:29;;;;;;;15.77;5.72;;;;;;;23.15;82.95;98235.13;5075031;28;20043;-78
2023/07/24 09:20:13;;;;;;;15.23;5.18;;;;;;;23.51;82.05;98234.44;5074274;28;20051;-77
2023/07/24 09:22:57;;;;;;;11.75;4.75;;;;;;;22.52;85.37;98234.66;5078364;28;20119;-77
2023/07/24 09:25:43;;;;;;;10.25;5.20;;;;;;;22.24;85.51;98238.00;5073410;28;20039;-76
2023/07/24 09:28:27;;;;;;;13.18;4.78;;;;;;;22.28;86.19;98243.59;5075119;28;20043;-77
2023/07/24 09:31:11;;;;;;;11.10;4.38;;;;;;;21.99;83.88;98239.19;5073337;28;20093;-76
2023/07/24 09:33:55;;;;;;;10.00;5.32;;;;;;;23.11;83.76;98237.63;5071371;28;20548;-80
2023/07/24 09:36:39;;;;;;;9.20;4.82;;;;;;;23.01;84.58;98240.50;5077809;28;20059;-83
2023/07/24 09:39:27;;;;;;;7.35;4.90;;;;;;;23.82;84.29;98244.50;5075685;28;20047;-82
2023/07/24 09:42:11;;;;;;;12.13;4.57;;;;;;;22.16;81.03;98237.88;5077681;28;20070;-81
2023/07/24 09:44:55;;;;;;;11.10;4.25;;;;;;;22.15;80.33;98241.63;5078337;28;20039;-84
2023/07/24 09:47:40;;;;;;;11.68;3.97;;;;;;;22.72;81.74;98244.22;5078263;28;20043;-79
2023/07/24 09:50:24;;;;;;;9.60;4.03;;;;;;;21.76;81.44;98252.34;5076685;28;20094;-78
2023/07/24 09:53:18;;;;;;;11.82;4.30;;;;;;;23.39;79.98;98251.03;5076385;28;20043;-78
2023/07/24 09:56:05;;;;;;;13.27;4.50;;;;;;;23.96;81.94;98257.06;5074107;28;20105;-79
2023/07/24 09:58:54;;;;;;;8.23;3.67;;;;;;;23.09;79.35;98253.19;5078963;28;20051;-80
2023/07/24 10:01:39;;;;;;;13.02;4.45;;;;;;;24.66;78.06;98259.47;5081886;28;20060;-81
2023/07/24 10:04:24;;;;;;;9.60;3.45;;;;;;;24.14;73.60;98249.19;5078824;28;20169;-82
2023/07/24 10:07:09;;;;;;;8.18;4.03;;;;;;;24.41;73.50;98250.19;5078970;28;20086;-83
2023/07/24 10:09:54;;;;;;;9.95;3.53;;;;;;;24.13;75.48;98239.56;5080750;28;20067;-79
2023/07/24 10:12:39;;;;;;;11.68;4.28;;;;;;;22.97;77.21;98253.66;5076327;28;20055;-80
2023/07/24 10:15:23;;;;;;;6.53;3.75;;;;;;;22.79;77.61;98239.28;5083061;28;20047;-78
2023/07/24 10:18:08;;;;;;;13.27;4.30;;;;;;;23.68;75.85;98251.78;5073568;28;20421;-79
2023/07/24 10:21:04;;;;;;;11.02;4.05;;;;;;;23.22;76.43;98245.44;5080654;28;20532;-81
2023/07/24 10:23:48;;;;;;;11.25;4.28;;;;;;;24.41;72.93;98252.88;5080604;28;20046;-78
2023/07/24 10:26:38;;;;;;;6.55;3.40;;;;;;;23.38;75.22;98254.78;5079201;28;20051;-82
2023/07/24 10:29:26;;;;;;;11.48;4.53;;;;;;;23.76;75.58;98258.31;5079689;28;20039;-84
2023/07/24 10:32:20;;;;;;;9.75;4.50;;;;;;;23.85;76.31;98261.06;5078988;28;20047;-83
2023/07/24 10:35:08;;;;;;;10.93;3.83;;;;;;;22.42;77.68;98258.88;5085045;28;20081;-84
2023/07/24 10:38:00;;;;;;;10.68;4.15;;;;;;;22.36;77.67;98258.16;5083490;28;20559;-83
2023/07/24 10:40:46;;;;;;;8.88;4.40;;;;;;;23.44;75.63;98260.84;5080774;28;20130;-83
2023/07/24 10:43:48;;;;;;;7.13;4.40;;;;;;;22.84;74.40;98257.13;5084266;28;20093;-81
2023/07/24 10:46:41;;;;;;;8.35;4.32;;;;;;;24.27;73.60;98261.75;5083837;28;20047;-81
2023/07/24 10:49:25;;;;;;;7.63;3.67;;;;;;;24.91;71.27;98254.59;5077238;28;20559;-82
2023/07/24 10:52:09;;;;;;;9.55;3.88;;;;;;;23.49;72.99;98259.97;5073052;28;20047;-81
2023/07/24 10:54:53;;;;;;;7.45;3.60;;;;;;;23.39;72.93;98271.66;5078668;28;20517;-82
2023/07/24 10:57:38;;;;;;;8.02;3.30;;;;;;;23.25;72.99;98267.09;5074053;28;20090;-84
2023/07/24 11:00:22;;;;;;;8.65;3.00;;;;;;;23.47;74.24;98273.63;5080459;28;20071;-86
2023/07/24 11:03:12;;;;;;;7.57;3.25;;;;;;;23.87;71.88;98283.00;5085484;28;20071;-86
2023/07/24 11:05:57;;;;;;;6.63;3.15;;;;;;;24.32;71.26;98293.81;5080212;28;20105;-82
2023/07/24 11:08:42;;;;;;;5.30;3.08;;;;;;;24.01;70.24;98281.09;5078101;28;20047;-85
2023/07/24 11:11:34;;;;;;;7.15;2.70;;;;;;;24.88;69.59;98279.34;5074067;28;20090;-84
2023/07/24 11:14:18;;;;;;;4.80;2.67;;;;;;;24.64;67.60;98291.19;5076245;28;20047;-85
2023/07/24 11:17:02;;;;;;;6.53;2.80;;;;;;;25.33;70.24;98291.84;5076506;28;20456;-88
2023/07/24 11:19:46;;;;;;;5.40;2.70;;;;;;;25.37;68.16;98285.53;5076084;28;20518;-86
2023/07/24 11:22:31;;;;;;;6.97;2.75;;;;;;;26.80;67.00;98282.63;5077441;28;20093;-84
2023/07/24 11:25:14;;;;;;;9.70;2.70;;;;;;;26.41;66.00;98290.59;5082706;28;20070;-86
2023/07/24 11:27:58;;;;;;;8.65;2.83;;;;;;;25.87;65.36;98288.19;5082889;28;20089;-87
2023/07/24 11:30:43;;;;;;;6.75;2.90;;;;;;;25.69;66.53;98304.31;5080559;28;20039;-86
2023/07/24 11:33:27;;;;;;;6.93;2.70;;;;;;;25.91;64.12;98294.53;5077408;28;20036;-86
2023/07/24 11:36:12;;;;;;;6.78;2.63;;;;;;;24.66;65.91;98297.84;5084886;28;20514;-86
2023/07/24 11:38:56;;;;;;;5.93;2.47;;;;;;;24.78;64.79;98307.25;5079591;28;20065;-87
2023/07/24 11:41:40;;;;;;;6.25;3.40;;;;;;;25.66;63.87;98299.56;5081358;28;20488;-86
2023/07/24 11:44:26;;;;;;;6.25;2.95;;;;;;;26.03;62.69;98310.03;5081276;28;20061;-86
2023/07/24 11:47:10;;;;;;;4.45;2.70;;;;;;;24.69;64.78;98301.81;5078545;28;20050;-86
2023/07/24 11:49:59;;;;;;;9.18;3.45;;;;;;;25.08;65.42;98304.88;5084182;28;20069;-85
2023/07/24 11:52:48;;;;;;;5.60;3.53;;;;;;;24.51;65.14;98300.88;5079410;28;20094;-86
2023/07/24 11:55:32;;;;;;;7.80;3.20;;;;;;;26.13;65.02;98308.94;5086080;28;20512;-85
2023/07/24 11:58:17;;;;;;;6.60;3.58;;;;;;;25.26;63.63;98311.13;5083088;28;20051;-87
2023/07/24 12:01:03;;;;;;;6.45;3.58;;;;;;;26.45;62.47;98304.22;5085558;28;20123;-85
2023/07/24 12:03:47;;;;;;;9.10;3.42;;;;;;;26.98;60.35;98304.13;5081094;28;20043;-84
2023/07/24 12:06:35;;;;;;;6.20;3.05;;;;;;;26.83;62.20;98303.50;5084653;28;20075;-85
2023/07/24 12:09:19;;;;;;;6.15;3.10;;;;;;;27.56;61.06;98303.75;5081733;28;20408;-85
2023/07/24 12:12:05;;;;;;;10.10;3.10;;;;;;;26.56;60.46;98310.06;5086549;28;20051;-84
2023/07/24 12:14:49;;;;;;;5.72;3.65;;;;;;;27.02;59.72;98302.38;5085026;28;20108;-85
2023/07/24 12:17:33;;;;;;;5.40;2.97;;;;;;;27.57;58.61;98306.09;5084668;28;20039;-84
2023/07/24 12:20:17;;;;;;;8.52;3.22;;;;;;;26.22;59.20;98301.69;5083538;28;20457;-84
2023/07/24 12:23:01;;;;;;;9.82;3.08;;;;;;;27.09;60.44;98297.25;5082779;28;20067;-82
2023/07/24 12:25:45;;;;;;;6.30;3.13;;;;;;;26.40;59.41;98301.69;5082754;28;20063;-82
2023/07/24 12:28:29;;;;;;;4.32;2.85;;;;;;;27.01;58.76;98293.50;5088642;28;20504;-83
2023/07/24 12:31:13;;;;;;;8.38;3.17;;;;;;;27.46;57.29;98308.34;5082682;28;20098;-82
2023/07/24 12:33:57;;;;;;;8.52;3.50;;;;;;;27.35;58.16;98307.16;5084665;28;20047;-82
2023/07/24 12:36:41;;;;;;;8.50;3.22;;;;;;;27.87;57.78;98305.28;5078323;28;20078;-82
2023/07/24 12:39:25;;;;;;;6.45;2.90;;;;;;;27.34;58.75;98306.34;5075198;28;20551;-84
2023/07/24 12:42:09;;;;;;;7.60;3.13;;;;;;;26.16;59.48;98308.31;5083070;28;20093;-81